Hemingford, NE (69348)

10:20 PM MDT on August 30, 2014 (GMT -0600)
Panhandle Coop/Box Butte Co | Change Station
CLOSE
Current Station
Personal Weather Station
Location: Alliance, NE
Elevation: 4140 ft
Nearby Weather Stations

Elev 4140 ft 42.22 °N, 102.98 °W | Updated 2 minutes ago

Overcast
Overcast
69.2 °F
Feels Like 69.2 °F
N
12.0
Wind Variable Wind from SE
Gusts 17.0 mph

Today
High -- | Low -- °F
--% Chance of Precip.
Yesterday
High -- | Low -- °F
Precip. -- in
6:15 AM 7:29 PM
Waxing Crescent, 27% visible
Pressure 29.75 in
Visibility 10.0 miles
Clouds Few 6000 ft
Scattered Clouds 7500 ft
Overcast 10000 ft
Dew Point 53 °F
Humidity 57%
Rainfall 0.00 in
Snow Depth Not available.
UV 0 out of 12
Pollen 9.80 out of 12
Air Quality Not available.
Flu Activity Not available.
METAR KAIA 310353Z AUTO 17011KT 10SM FEW060 SCT075 OVC100 22/10 A2987 RMK AO2 RAB02E28 SLP072 P0000 T02170100

More Conditions Fewer Conditions

Pressure 29.75 in
Visibility 10.0 miles
Clouds Few 6000 ft
Scattered Clouds 7500 ft
Overcast 10000 ft
Dew Point 53 °F
Humidity 57%
Rainfall 0.00 in
Snow Depth Not available.
UV 0 out of 12
Pollen 9.80 out of 12
Air Quality Not available.
Flu Activity Not available.
METAR KAIA 310353Z AUTO 17011KT 10SM FEW060 SCT075 OVC100 22/10 A2987 RMK AO2 RAB02E28 SLP072 P0000 T02170100

More Conditions Fewer Conditions

Nowcast | as of 9:52 PM MDT on August 30, 2014

Numerous showers will continue to affect the western Nebraska Panhandle through midnight tonight. Rainfall amounts during this time will be less than a tenth of an inch. Occasional lightning and gusty winds will also be a possibility. If threatening weather approaches your area...seek shelter indoors until conditions improve.

×

10-Day Weather Forecast

Almanac

Astronomy

Aug. 30, 2014 Rise Set
Actual Time 6:15 AM MDT 7:29 PM MDT
Civil Twilight 5:46 AM MDT 7:58 PM MDT
Nautical Twilight 5:11 AM MDT 8:33 PM MDT
Astronomical Twilight 4:34 AM MDT 9:09 PM MDT
Moon 11:11 AM MDT (8/30) 9:58 PM MDT (8/30)
Length of Visible Light 14h 11m
Length of Day
13h 14m
Tomorrow will be 2m 43s shorter.
Waxing Crescent, 27% of the Moon is Illuminated
Aug 31
Waxing Crescent
Sep 2
First Quarter
Sep 8
Full
Sep 15
Last Quarter
Sep 24
New

Today's Extremes

State Highs State Lows

Community

WunderPhotos

Upload Photos

1,748,776 photos uploaded!

Nearby

Snow Depth

Station Depth Elevation
No new snow has been reported.

Earthquake Activity

City Distance Mag. Time & Date
No recent earthquake activity has been reported nearby.
Minimum magnitude displayed is 2.5.

Coastal Water Temperatures

Place Temperature
No Stations Reporting

Nearby Weather Stations